createdAt,value
2018-04-13T00:01:48.007Z,73.78
2018-04-13T00:04:16.347Z,75.21
2018-04-13T00:06:44.639Z,75.69
2018-04-13T00:09:12.923Z,75.82
2018-04-13T00:11:41.273Z,75.68
2018-04-13T00:14:09.569Z,76.37
2018-04-13T00:16:38.482Z,74.85
2018-04-13T00:19:06.783Z,74.45
2018-04-13T00:21:35.059Z,75.95
2018-04-13T00:24:03.370Z,76.71
2018-04-13T00:26:31.653Z,76.60
2018-04-13T00:28:59.983Z,76.43
2018-04-13T00:31:28.631Z,76.61
2018-04-13T00:33:56.913Z,75.96
2018-04-13T00:36:25.243Z,75.44
2018-04-13T00:38:54.386Z,74.81
2018-04-13T00:41:22.711Z,74.48
2018-04-13T00:43:51.019Z,75.31
2018-04-13T00:46:19.611Z,75.27
2018-04-13T00:48:47.927Z,75.44
2018-04-13T00:51:16.203Z,75.08
2018-04-13T00:53:44.490Z,75.72
2018-04-13T00:56:13.266Z,76.45
2018-04-13T00:58:41.773Z,76.42
2018-04-13T01:01:10.869Z,76.92
2018-04-13T01:03:39.183Z,77.01
2018-04-13T01:06:07.465Z,77.98
2018-04-13T01:08:35.838Z,78.24
2018-04-13T01:11:04.178Z,78.47
2018-04-13T01:13:33.766Z,78.58
2018-04-13T01:16:02.046Z,78.91
2018-04-13T01:18:30.354Z,79.65
2018-04-13T01:20:59.395Z,80.48
2018-04-13T01:23:27.805Z,80.68
2018-04-13T01:25:56.141Z,80.12
2018-04-13T01:28:24.424Z,80.01
2018-04-13T01:30:52.710Z,80.11
2018-04-13T01:33:21.055Z,79.96
2018-04-13T01:35:50.107Z,80.31
2018-04-13T01:38:18.383Z,80.39
2018-04-13T01:40:46.714Z,80.68
2018-04-13T01:43:16.758Z,81.12
2018-04-13T01:45:45.216Z,80.79
2018-04-13T01:48:13.563Z,80.79
2018-04-13T01:50:42.604Z,80.21
2018-04-13T01:53:10.892Z,80.08
2018-04-13T01:55:40.013Z,79.84
2018-04-13T01:58:08.301Z,79.34
2018-04-13T02:00:36.587Z,79.03
2018-04-13T02:03:04.942Z,79.23
2018-04-13T02:05:33.226Z,79.40
2018-04-13T02:08:01.578Z,79.60
2018-04-13T02:10:30.179Z,79.58
2018-04-13T02:12:58.686Z,79.81
2018-04-13T02:15:27.042Z,80.00
2018-04-13T02:17:55.791Z,79.80
2018-04-13T02:20:24.336Z,80.07
2018-04-13T02:22:54.251Z,79.77
2018-04-13T02:25:23.491Z,81.20
2018-04-13T02:27:51.826Z,82.28
2018-04-13T02:30:20.666Z,82.92
2018-04-13T02:32:49.038Z,82.42
2018-04-13T02:35:17.325Z,80.62
2018-04-13T02:37:46.051Z,80.38
2018-04-13T02:40:16.248Z,80.26
2018-04-13T02:42:44.790Z,79.98
2018-04-13T02:45:14.516Z,80.04
2018-04-13T02:47:44.503Z,80.34
2018-04-13T02:50:14.327Z,80.34
2018-04-13T02:52:43.069Z,81.29
2018-04-13T02:55:12.219Z,81.22
2018-04-13T02:57:41.751Z,81.60
2018-04-13T03:00:10.062Z,81.22
2018-04-13T03:02:39.053Z,81.92
2018-04-13T03:05:07.632Z,82.99
2018-04-13T03:07:35.924Z,82.63
2018-04-13T03:10:04.655Z,82.66
2018-04-13T03:12:33.135Z,82.79
2018-04-13T03:15:02.033Z,82.82
2018-04-13T03:17:30.483Z,82.84
2018-04-13T03:19:58.758Z,82.60
2018-04-13T03:22:27.107Z,82.20
2018-04-13T03:24:55.424Z,82.28
2018-04-13T03:27:24.134Z,82.32
2018-04-13T03:29:52.455Z,83.05
2018-04-13T03:32:21.018Z,83.29
2018-04-13T03:34:49.303Z,83.29
2018-04-13T03:37:17.619Z,82.73
2018-04-13T03:39:45.911Z,82.68
2018-04-13T03:42:14.206Z,82.73
2018-04-13T03:44:42.543Z,82.35
2018-04-13T03:47:10.834Z,81.98
2018-04-13T03:49:39.492Z,81.69
2018-04-13T03:52:08.049Z,82.16
2018-04-13T03:54:36.563Z,81.89
2018-04-13T03:57:04.879Z,81.74
2018-04-13T03:59:33.947Z,80.11
2018-04-13T04:02:02.237Z,78.40
2018-04-13T04:04:30.955Z,78.44
2018-04-13T04:06:59.611Z,78.12
2018-04-13T04:09:28.213Z,78.38
2018-04-13T04:11:56.811Z,78.58
2018-04-13T04:14:25.777Z,78.42
2018-04-13T04:16:54.290Z,78.25
2018-04-13T04:19:40.372Z,78.16
2018-04-13T04:22:26.234Z,78.17
2018-04-13T04:25:12.961Z,77.99
2018-04-13T04:27:41.680Z,78.18
2018-04-13T04:30:11.875Z,77.74
2018-04-13T04:32:42.027Z,79.32
2018-04-13T04:35:10.308Z,80.43
2018-04-13T04:37:38.762Z,80.16
2018-04-13T04:40:07.642Z,79.62
2018-04-13T04:42:35.936Z,79.97
2018-04-13T04:45:04.799Z,80.09
2018-04-13T04:47:33.301Z,80.13
2018-04-13T04:50:01.861Z,80.73
2018-04-13T04:52:30.410Z,80.23
2018-04-13T04:54:58.973Z,79.86
2018-04-13T04:57:27.283Z,79.21
2018-04-13T04:59:56.331Z,78.48
2018-04-13T05:02:25.126Z,77.99
2018-04-13T05:04:53.528Z,77.57
2018-04-13T05:07:23.417Z,78.12
2018-04-13T05:09:52.591Z,78.70
2018-04-13T05:12:20.700Z,78.55
2018-04-13T05:14:50.778Z,78.83
2018-04-13T05:17:19.014Z,79.06
2018-04-13T05:19:47.278Z,78.22
2018-04-13T05:22:15.557Z,78.46
2018-04-13T05:24:44.728Z,77.87
2018-04-13T05:27:13.022Z,77.17
2018-04-13T05:29:41.310Z,76.11
2018-04-13T05:32:09.655Z,75.89
2018-04-13T05:34:37.939Z,75.39
2018-04-13T05:37:07.114Z,75.87
2018-04-13T05:39:35.943Z,75.97
2018-04-13T05:42:04.387Z,75.26
2018-04-13T05:44:32.887Z,74.63
2018-04-13T05:47:01.497Z,72.97
2018-04-13T05:49:30.961Z,72.63
2018-04-13T05:51:59.664Z,72.59
2018-04-13T05:54:28.323Z,73.21
2018-04-13T05:56:56.859Z,73.85
2018-04-13T05:59:25.174Z,73.60
2018-04-13T06:01:54.314Z,73.59
2018-04-13T06:04:23.118Z,73.20
2018-04-13T06:06:51.768Z,72.52
2018-04-13T06:09:21.296Z,71.78
2018-04-13T06:11:50.229Z,71.35
2018-04-13T06:14:18.662Z,70.81
2018-04-13T06:16:47.474Z,70.44
2018-04-13T06:19:16.233Z,69.73
2018-04-13T06:21:44.519Z,69.33
2018-04-13T06:24:13.380Z,69.11
2018-04-13T06:26:42.379Z,68.75
2018-04-13T06:29:10.671Z,68.10
2018-04-13T06:31:39.255Z,67.36
2018-04-13T06:34:07.698Z,66.92
2018-04-13T06:36:35.991Z,66.48
2018-04-13T06:39:04.690Z,66.06
2018-04-13T06:41:33.097Z,64.98
2018-04-13T06:44:02.401Z,65.39
2018-04-13T06:46:31.282Z,64.41
2018-04-13T06:48:59.648Z,63.77
2018-04-13T06:51:28.532Z,62.52
2018-04-13T06:53:56.835Z,60.40
2018-04-13T06:56:25.683Z,59.15
2018-04-13T06:58:53.974Z,58.78
2018-04-13T07:01:22.331Z,58.22
2018-04-13T07:03:50.847Z,57.70
2018-04-13T07:06:19.135Z,57.49
2018-04-13T07:08:48.160Z,57.33
2018-04-13T07:11:17.232Z,58.71
2018-04-13T07:13:45.531Z,58.45
2018-04-13T07:16:14.587Z,57.54
2018-04-13T07:18:42.907Z,56.48
2018-04-13T07:21:11.210Z,56.80
2018-04-13T07:23:39.506Z,56.92
2018-04-13T07:26:07.848Z,56.91
2018-04-13T07:28:36.135Z,56.22
2018-04-13T07:31:04.423Z,56.49
2018-04-13T07:33:32.737Z,57.13
2018-04-13T07:36:01.027Z,56.66
2018-04-13T07:38:30.055Z,58.08
2018-04-13T07:40:58.410Z,57.96
2018-04-13T07:43:27.481Z,56.38
2018-04-13T07:45:56.687Z,55.96
2018-04-13T07:48:25.017Z,55.78
2018-04-13T07:50:53.835Z,55.59
2018-04-13T07:53:22.215Z,55.25
2018-04-13T07:55:51.087Z,54.85
2018-04-13T07:58:19.394Z,54.68
2018-04-13T08:00:47.487Z,54.95
2018-04-13T08:03:16.307Z,54.98
2018-04-13T08:05:44.595Z,55.28
2018-04-13T08:08:13.151Z,54.63
2018-04-13T08:10:41.667Z,54.48
2018-04-13T08:13:09.981Z,53.61
2018-04-13T08:15:38.270Z,53.07
2018-04-13T08:18:06.607Z,52.31
2018-04-13T08:20:36.305Z,51.69
2018-04-13T08:23:04.625Z,51.25
2018-04-13T08:25:32.975Z,51.35
2018-04-13T08:28:01.273Z,51.90
2018-04-13T08:30:30.154Z,51.42
2018-04-13T08:32:58.478Z,51.24
2018-04-13T08:35:26.840Z,50.28
2018-04-13T08:37:55.303Z,48.96
2018-04-13T08:40:23.643Z,50.21
2018-04-13T08:42:51.990Z,49.60
2018-04-13T08:45:20.790Z,50.06
2018-04-13T08:47:50.783Z,50.33
2018-04-13T08:50:19.081Z,50.74
2018-04-13T08:52:47.377Z,50.28
2018-04-13T08:55:15.707Z,51.55
2018-04-13T08:57:44.045Z,53.21
2018-04-13T09:00:12.343Z,54.35
2018-04-13T09:02:40.776Z,54.47
2018-04-13T09:05:09.836Z,54.16
2018-04-13T09:07:38.118Z,56.38
2018-04-13T09:10:06.736Z,58.49
2018-04-13T09:12:35.048Z,57.90
2018-04-13T09:15:03.334Z,60.21
2018-04-13T09:17:31.663Z,59.41
2018-04-13T09:19:59.950Z,58.56
2018-04-13T09:22:28.295Z,57.79
2018-04-13T09:24:56.635Z,57.36
2018-04-13T09:27:24.922Z,56.94
2018-04-13T09:29:53.210Z,57.96
2018-04-13T09:32:22.118Z,57.45
2018-04-13T09:34:50.419Z,58.27
2018-04-13T09:37:18.706Z,59.25
2018-04-13T09:39:47.146Z,59.81
2018-04-13T09:42:15.667Z,60.65
2018-04-13T09:44:44.167Z,59.97
2018-04-13T09:47:13.039Z,60.25
2018-04-13T09:49:41.363Z,59.38
2018-04-13T09:52:09.802Z,56.87
2018-04-13T09:54:38.087Z,60.50
2018-04-13T09:57:07.803Z,60.18
2018-04-13T09:59:36.343Z,60.95
2018-04-13T10:02:04.635Z,61.64
2018-04-13T10:04:38.386Z,56.53
2018-04-13T10:07:06.670Z,56.94
2018-04-13T10:09:35.230Z,57.09
2018-04-13T10:12:03.547Z,57.71
2018-04-13T10:14:31.827Z,56.45
2018-04-13T10:17:00.491Z,51.51
2018-04-13T10:19:29.375Z,52.71
2018-04-13T10:21:58.600Z,53.37
2018-04-13T10:24:26.919Z,55.10
2018-04-13T10:26:55.249Z,55.60
2018-04-13T10:29:23.501Z,56.82
2018-04-13T10:31:52.014Z,57.66
2018-04-13T10:34:20.294Z,57.52
2018-04-13T10:36:48.570Z,57.55
2018-04-13T10:39:17.406Z,56.75
2018-04-13T10:41:45.684Z,57.70
2018-04-13T10:44:13.971Z,58.21
2018-04-13T10:46:42.310Z,57.78
2018-04-13T10:49:11.354Z,57.98
2018-04-13T10:51:40.107Z,57.89
2018-04-13T10:54:09.115Z,58.53
2018-04-13T10:56:37.403Z,59.79
2018-04-13T10:59:05.795Z,60.50
2018-04-13T11:01:34.111Z,61.02
2018-04-13T11:04:02.446Z,62.83
2018-04-13T11:06:30.760Z,64.23
2018-04-13T11:08:59.122Z,64.85
2018-04-13T11:11:27.418Z,66.62
2018-04-13T11:13:55.751Z,67.68
2018-04-13T11:16:24.071Z,68.70
2018-04-13T11:18:52.355Z,68.52
2018-04-13T11:21:21.467Z,68.00
2018-04-13T11:23:50.515Z,69.27
2018-04-13T11:26:18.799Z,71.08
2018-04-13T11:28:47.139Z,73.52
2018-04-13T11:31:15.420Z,74.71
2018-04-13T11:33:44.475Z,78.39
2018-04-13T11:36:13.559Z,78.27
2018-04-13T11:38:41.839Z,79.27
2018-04-13T11:41:11.548Z,80.07
2018-04-13T11:43:40.626Z,80.45
2018-04-13T11:46:08.907Z,79.74
2018-04-13T11:48:37.328Z,82.10
2018-04-13T11:51:05.631Z,80.62
2018-04-13T11:53:35.236Z,80.36
2018-04-13T11:56:04.347Z,81.70
2018-04-13T11:58:33.442Z,79.55
2018-04-13T12:01:01.940Z,79.94
2018-04-13T12:03:30.816Z,78.57
2018-04-13T12:05:59.104Z,79.17
2018-04-13T12:08:27.394Z,78.46
2018-04-13T12:10:55.730Z,77.07
2018-04-13T12:13:24.036Z,76.92
2018-04-13T12:15:52.325Z,75.45
2018-04-13T12:18:20.663Z,75.07
2018-04-13T12:20:48.959Z,74.74
2018-04-13T12:23:17.283Z,74.42
2018-04-13T12:25:46.323Z,74.49
2018-04-13T12:28:15.331Z,74.53
2018-04-13T12:30:43.616Z,74.28
2018-04-13T12:33:11.957Z,74.77
2018-04-13T12:35:40.236Z,74.40
2018-04-13T12:38:08.521Z,74.82
2018-04-13T12:40:36.849Z,74.99
2018-04-13T12:43:05.130Z,75.24
2018-04-13T12:45:33.562Z,75.42
2018-04-13T12:48:01.851Z,76.22
2018-04-13T12:50:30.159Z,76.90
2018-04-13T12:52:58.575Z,78.68
2018-04-13T12:55:26.879Z,80.07
2018-04-13T12:57:55.154Z,81.16
2018-04-13T13:00:23.479Z,82.98
2018-04-13T13:02:51.771Z,83.01
2018-04-13T13:05:22.162Z,83.10
2018-04-13T13:07:50.495Z,82.71
2018-04-13T13:10:18.830Z,83.23
2018-04-13T13:12:47.247Z,82.09
2018-04-13T13:15:15.535Z,81.78
2018-04-13T13:17:43.828Z,81.04
2018-04-13T13:20:12.583Z,79.11
2018-04-13T13:22:40.871Z,78.07
2018-04-13T13:25:09.154Z,79.10
2018-04-13T13:27:37.483Z,79.14
2018-04-13T13:30:07.051Z,79.02
2018-04-13T13:32:35.358Z,79.06
2018-04-13T13:35:03.794Z,80.14
2018-04-13T13:37:32.088Z,80.88
2018-04-13T13:40:00.379Z,79.99
2018-04-13T13:42:29.044Z,79.86
2018-04-13T13:44:57.336Z,80.47
2018-04-13T13:47:25.811Z,81.69
2018-04-13T13:49:54.244Z,80.69
2018-04-13T13:52:22.532Z,80.20
2018-04-13T13:54:50.946Z,78.38
2018-04-13T13:57:19.740Z,76.74
2018-04-13T13:59:48.854Z,78.73
2018-04-13T14:02:18.106Z,79.24
2018-04-13T14:04:46.855Z,79.48
2018-04-13T14:07:15.407Z,79.75
2018-04-13T14:09:44.395Z,79.96
2018-04-13T14:12:12.851Z,81.01
2018-04-13T14:14:41.303Z,80.87
2018-04-13T14:17:10.107Z,80.37
2018-04-13T14:19:39.154Z,79.25
2018-04-13T14:22:07.515Z,79.58
2018-04-13T14:24:35.802Z,78.42
2018-04-13T14:27:04.122Z,79.05
2018-04-13T14:29:32.442Z,78.05
2018-04-13T14:32:00.744Z,77.96
2018-04-13T14:34:29.619Z,76.09
2018-04-13T14:36:58.142Z,76.11
2018-04-13T14:39:26.428Z,75.47
2018-04-13T14:41:55.407Z,76.29
2018-04-13T14:44:24.459Z,76.73
2018-04-13T14:46:53.219Z,75.89
2018-04-13T14:49:21.542Z,74.11
2018-04-13T14:51:50.055Z,74.62
2018-04-13T14:54:18.348Z,73.78
2018-04-13T14:56:46.636Z,73.72
2018-04-13T14:59:14.962Z,72.48
2018-04-13T15:01:43.255Z,72.24
2018-04-13T15:04:12.114Z,72.69
2018-04-13T15:06:41.240Z,72.03
2018-04-13T15:09:10.297Z,71.71
2018-04-13T15:11:38.592Z,72.00
2018-04-13T15:14:06.915Z,71.16
2018-04-13T15:16:35.197Z,69.05
2018-04-13T15:19:03.503Z,69.83
2018-04-13T15:21:31.943Z,69.53
2018-04-13T15:24:00.989Z,69.79
2018-04-13T15:26:29.406Z,68.68
2018-04-13T15:28:57.693Z,67.53
2018-04-13T15:31:25.978Z,68.55
2018-04-13T15:33:54.296Z,68.01
2018-04-13T15:36:22.587Z,67.61
2018-04-13T15:38:50.920Z,68.10
2018-04-13T15:41:19.204Z,67.74
2018-04-13T15:43:47.687Z,68.21
2018-04-13T15:46:17.119Z,68.23
2018-04-13T15:48:45.432Z,68.89
2018-04-13T15:51:14.471Z,67.71
2018-04-13T15:53:42.795Z,66.70
2018-04-13T15:56:11.599Z,65.45
2018-04-13T15:58:40.729Z,65.00
2018-04-13T16:01:09.139Z,62.82
2018-04-13T16:03:37.422Z,61.88
2018-04-13T16:06:05.831Z,62.71
2018-04-13T16:08:34.880Z,62.95
2018-04-13T16:11:03.467Z,63.08
2018-04-13T16:13:31.751Z,63.04
2018-04-13T16:16:00.040Z,63.34
2018-04-13T16:18:30.956Z,62.32
2018-04-13T16:20:59.238Z,60.61
2018-04-13T16:23:27.527Z,63.54
2018-04-13T16:25:55.983Z,62.07
2018-04-13T16:28:24.277Z,60.49
2018-04-13T16:30:52.592Z,59.31
2018-04-13T16:33:20.951Z,58.26
2018-04-13T16:35:49.203Z,56.49
2018-04-13T16:38:17.490Z,55.59
2018-04-13T16:40:46.279Z,54.92
2018-04-13T16:43:14.568Z,54.49
2018-04-13T16:45:42.854Z,54.33
2018-04-13T16:48:11.298Z,52.40
2018-04-13T16:50:40.492Z,51.58
2018-04-13T16:53:08.768Z,51.50
2018-04-13T16:55:37.066Z,52.13
2018-04-13T16:58:06.048Z,52.47
2018-04-13T17:00:34.416Z,52.34
2018-04-13T17:03:02.703Z,53.08
2018-04-13T17:05:30.884Z,54.46
2018-04-13T17:07:59.171Z,53.79
2018-04-13T17:10:27.454Z,55.88
2018-04-13T17:12:56.099Z,56.96
2018-04-13T17:15:24.388Z,58.08
2018-04-13T17:17:53.087Z,59.81
2018-04-13T17:20:21.375Z,60.83
2018-04-13T17:22:49.667Z,62.17
2018-04-13T17:25:18.376Z,62.80
2018-04-13T17:27:46.835Z,64.29
2018-04-13T17:30:15.311Z,65.22
2018-04-13T17:32:44.411Z,66.35
2018-04-13T17:35:12.697Z,67.70
2018-04-13T17:37:40.988Z,68.60
2018-04-13T17:40:09.300Z,69.02
2018-04-13T17:42:37.583Z,69.65
2018-04-13T17:45:05.895Z,70.62
2018-04-13T17:47:34.170Z,71.33
2018-04-13T17:50:03.200Z,71.72
2018-04-13T17:52:31.927Z,72.08
2018-04-13T17:55:01.210Z,72.56
2018-04-13T17:57:29.930Z,73.46
2018-04-13T18:00:00.207Z,74.54
2018-04-13T18:02:29.842Z,75.09
2018-04-13T18:04:58.668Z,75.98
2018-04-13T18:07:27.616Z,76.27
2018-04-13T18:09:56.183Z,76.63
2018-04-13T18:12:24.505Z,77.75
2018-04-13T18:14:54.016Z,78.35
2018-04-13T18:17:22.454Z,78.75
2018-04-13T18:19:51.286Z,79.54
2018-04-13T18:22:19.735Z,79.85
2018-04-13T18:24:48.190Z,80.06
2018-04-13T18:27:16.476Z,79.88
2018-04-13T18:29:45.388Z,79.97
2018-04-13T18:32:13.671Z,80.46
2018-04-13T18:34:42.151Z,80.84
2018-04-13T18:37:10.484Z,81.46
2018-04-13T18:39:39.307Z,82.38
2018-04-13T18:42:07.582Z,82.63
2018-04-13T18:44:35.920Z,83.03
2018-04-13T18:47:04.211Z,83.12
2018-04-13T18:49:32.535Z,83.16
2018-04-13T18:52:00.831Z,83.65
2018-04-13T18:54:29.891Z,83.99
2018-04-13T18:56:58.094Z,84.51
2018-04-13T18:59:26.374Z,84.96
2018-04-13T19:02:00.219Z,85.36
2018-04-13T19:04:28.714Z,85.78
2018-04-13T19:06:58.415Z,86.31
2018-04-13T19:09:27.135Z,86.17
2018-04-13T19:11:56.599Z,86.43
2018-04-13T19:14:25.827Z,86.81
2018-04-13T19:16:54.243Z,87.95
2018-04-13T19:19:22.947Z,88.09
2018-04-13T19:21:51.647Z,87.85
2018-04-13T19:24:21.391Z,87.70
2018-04-13T19:26:50.359Z,87.80
2018-04-13T19:29:18.806Z,88.03
2018-04-13T19:31:47.140Z,88.50
2018-04-13T19:34:15.419Z,88.60
2018-04-13T19:36:43.701Z,88.57
2018-04-13T19:39:12.027Z,88.62
2018-04-13T19:41:40.371Z,88.49
2018-04-13T19:44:08.655Z,89.46
2018-04-13T19:46:36.975Z,89.34
2018-04-13T19:49:05.255Z,89.21
2018-04-13T19:51:34.184Z,89.08
2018-04-13T19:54:02.507Z,89.33
2018-04-13T19:56:31.182Z,89.07
2018-04-13T19:59:00.233Z,89.26
2018-04-13T20:01:28.699Z,89.02
2018-04-13T20:03:56.975Z,89.47
2018-04-13T20:06:25.410Z,89.68
2018-04-13T20:08:53.711Z,89.92
2018-04-13T20:11:22.051Z,89.96
2018-04-13T20:13:51.770Z,90.10
2018-04-13T20:16:21.330Z,90.35
2018-04-13T20:18:49.724Z,90.14
2018-04-13T20:21:19.131Z,90.24
2018-04-13T20:23:47.414Z,90.23
2018-04-13T20:26:15.961Z,90.63
2018-04-13T20:28:44.247Z,91.07
2018-04-13T20:31:12.526Z,91.99
2018-04-13T20:33:40.860Z,93.05
2018-04-13T20:36:11.186Z,92.55
2018-04-13T20:38:39.475Z,92.06
2018-04-13T20:41:07.819Z,91.67
2018-04-13T20:43:36.324Z,91.58
2018-04-13T20:46:05.715Z,91.62
2018-04-13T20:48:34.868Z,91.60
2018-04-13T20:51:03.167Z,91.55
2018-04-13T20:53:32.463Z,92.30
2018-04-13T20:56:01.551Z,91.92
2018-04-13T20:58:29.932Z,91.87
2018-04-13T21:00:58.219Z,91.92
2018-04-13T21:03:27.131Z,91.92
2018-04-13T21:05:56.173Z,91.71
2018-04-13T21:08:24.459Z,91.37
2018-04-13T21:10:52.992Z,91.46
2018-04-13T21:13:21.843Z,91.73
2018-04-13T21:15:50.151Z,92.67
2018-04-13T21:18:18.643Z,92.45
2018-04-13T21:20:47.775Z,92.33
2018-04-13T21:23:16.158Z,92.11
2018-04-13T21:25:44.495Z,92.22
2018-04-13T21:28:13.585Z,92.31
2018-04-13T21:30:41.870Z,92.37
2018-04-13T21:33:10.923Z,91.99
2018-04-13T21:35:39.624Z,92.45
2018-04-13T21:38:09.054Z,92.53
2018-04-13T21:40:37.666Z,92.57
2018-04-13T21:43:06.599Z,92.23
2018-04-13T21:45:35.279Z,92.32
2018-04-13T21:48:03.605Z,92.23
2018-04-13T21:50:32.022Z,92.20
2018-04-13T21:53:00.940Z,92.15
2018-04-13T21:55:29.227Z,92.08
2018-04-13T21:57:57.555Z,91.87
2018-04-13T22:00:25.831Z,92.37
2018-04-13T22:02:54.181Z,92.83
2018-04-13T22:05:22.317Z,92.69
2018-04-13T22:07:50.777Z,93.41
2018-04-13T22:10:19.099Z,93.24
2018-04-13T22:13:05.916Z,93.03
2018-04-13T22:15:34.650Z,92.89
2018-04-13T22:18:03.132Z,92.84
2018-04-13T22:20:32.339Z,93.14
2018-04-13T22:23:00.620Z,93.20
2018-04-13T22:25:30.071Z,93.40
2018-04-13T22:27:58.384Z,93.26
2018-04-13T22:30:27.348Z,93.22
2018-04-13T22:32:56.448Z,93.27
2018-04-13T22:35:24.731Z,93.38
2018-04-13T22:37:53.243Z,93.23
2018-04-13T22:40:21.696Z,93.38
2018-04-13T22:42:50.322Z,93.08
2018-04-13T22:45:18.611Z,93.00
2018-04-13T22:47:47.035Z,93.26
2018-04-13T22:50:15.372Z,93.61
2018-04-13T22:52:43.655Z,93.37
2018-04-13T22:55:11.983Z,93.29
2018-04-13T22:57:40.259Z,93.49
2018-04-13T23:00:08.544Z,93.52
2018-04-13T23:02:36.886Z,93.58
2018-04-13T23:05:05.175Z,93.80
2018-04-13T23:07:33.472Z,94.20
2018-04-13T23:10:01.830Z,94.14
2018-04-13T23:12:30.143Z,94.17
2018-04-13T23:14:58.731Z,94.11
2018-04-13T23:17:27.043Z,94.21
2018-04-13T23:19:55.325Z,94.49
2018-04-13T23:22:37.746Z,94.84
2018-04-13T23:25:06.799Z,95.16
2018-04-13T23:27:35.707Z,95.24
2018-04-13T23:30:03.992Z,95.14
2018-04-13T23:32:32.327Z,95.04
2018-04-13T23:35:00.633Z,94.86
2018-04-13T23:37:28.945Z,95.31
2018-04-13T23:39:57.784Z,95.31
2018-04-13T23:42:26.070Z,95.07
2018-04-13T23:44:55.203Z,94.90
2018-04-13T23:47:23.511Z,95.33
2018-04-13T23:49:52.222Z,95.79
2018-04-13T23:52:20.530Z,95.64
2018-04-13T23:54:48.815Z,95.12
2018-04-13T23:57:17.919Z,95.18
2018-04-13T23:59:46.966Z,95.01
